sensor_id;sensor_type;location;lat;lon;timestamp;temperature;humidity
65598;SHT31;52267;51.984;20.956;2023-08-17T00:01:47;23.52;76.16
65598;SHT31;52267;51.984;20.956;2023-08-17T00:04:14;23.48;76.19
65598;SHT31;52267;51.984;20.956;2023-08-17T00:06:41;23.49;76.03
65598;SHT31;52267;51.984;20.956;2023-08-17T00:09:09;23.49;76.02
65598;SHT31;52267;51.984;20.956;2023-08-17T00:11:36;23.48;76.02
65598;SHT31;52267;51.984;20.956;2023-08-17T00:14:03;23.48;75.98
65598;SHT31;52267;51.984;20.956;2023-08-17T00:16:31;23.48;75.94
65598;SHT31;52267;51.984;20.956;2023-08-17T00:18:58;23.47;75.92
65598;SHT31;52267;51.984;20.956;2023-08-17T00:21:25;23.47;75.96
65598;SHT31;52267;51.984;20.956;2023-08-17T00:23:52;23.47;75.95
65598;SHT31;52267;51.984;20.956;2023-08-17T00:26:19;23.46;76.03
65598;SHT31;52267;51.984;20.956;2023-08-17T00:28:46;23.46;75.99
65598;SHT31;52267;51.984;20.956;2023-08-17T00:31:13;23.45;75.92
65598;SHT31;52267;51.984;20.956;2023-08-17T00:33:40;23.44;75.89
65598;SHT31;52267;51.984;20.956;2023-08-17T00:36:07;23.44;75.89
65598;SHT31;52267;51.984;20.956;2023-08-17T00:38:34;23.45;75.94
65598;SHT31;52267;51.984;20.956;2023-08-17T00:41:01;23.44;76.01
65598;SHT31;52267;51.984;20.956;2023-08-17T00:43:29;23.41;76.05
65598;SHT31;52267;51.984;20.956;2023-08-17T00:45:56;23.39;76.17
65598;SHT31;52267;51.984;20.956;2023-08-17T00:48:23;23.37;76.29
65598;SHT31;52267;51.984;20.956;2023-08-17T00:50:50;23.37;76.33
65598;SHT31;52267;51.984;20.956;2023-08-17T00:53:19;23.36;76.49
65598;SHT31;52267;51.984;20.956;2023-08-17T00:55:47;23.33;76.54
65598;SHT31;52267;51.984;20.956;2023-08-17T00:58:14;23.32;76.50
65598;SHT31;52267;51.984;20.956;2023-08-17T01:00:41;23.29;76.64
65598;SHT31;52267;51.984;20.956;2023-08-17T01:03:08;23.25;76.60
65598;SHT31;52267;51.984;20.956;2023-08-17T01:05:35;23.26;76.62
65598;SHT31;52267;51.984;20.956;2023-08-17T01:08:04;23.24;76.58
65598;SHT31;52267;51.984;20.956;2023-08-17T01:10:34;23.23;76.58
65598;SHT31;52267;51.984;20.956;2023-08-17T01:13:17;23.21;76.82
65598;SHT31;52267;51.984;20.956;2023-08-17T01:15:52;23.16;76.76
65598;SHT31;52267;51.984;20.956;2023-08-17T01:18:26;23.13;76.77
65598;SHT31;52267;51.984;20.956;2023-08-17T01:21:02;23.11;76.81
65598;SHT31;52267;51.984;20.956;2023-08-17T01:23:33;23.11;76.82
65598;SHT31;52267;51.984;20.956;2023-08-17T01:26:01;23.11;76.82
65598;SHT31;52267;51.984;20.956;2023-08-17T01:28:28;23.09;76.92
65598;SHT31;52267;51.984;20.956;2023-08-17T01:30:57;23.09;76.95
65598;SHT31;52267;51.984;20.956;2023-08-17T01:36:46;23.02;77.20
65598;SHT31;52267;51.984;20.956;2023-08-17T01:39:09;22.97;77.39
65598;SHT31;52267;51.984;20.956;2023-08-17T01:41:37;22.94;77.29
65598;SHT31;52267;51.984;20.956;2023-08-17T01:44:06;22.92;77.37
65598;SHT31;52267;51.984;20.956;2023-08-17T01:46:34;22.88;77.35
65598;SHT31;52267;51.984;20.956;2023-08-17T01:49:01;22.87;77.22
65598;SHT31;52267;51.984;20.956;2023-08-17T01:51:28;22.84;77.60
65598;SHT31;52267;51.984;20.956;2023-08-17T01:53:55;22.85;77.35
65598;SHT31;52267;51.984;20.956;2023-08-17T01:56:23;22.86;77.35
65598;SHT31;52267;51.984;20.956;2023-08-17T01:58:50;22.87;77.49
65598;SHT31;52267;51.984;20.956;2023-08-17T02:01:17;22.86;77.52
65598;SHT31;52267;51.984;20.956;2023-08-17T02:03:44;22.85;77.66
65598;SHT31;52267;51.984;20.956;2023-08-17T02:06:11;22.82;77.71
65598;SHT31;52267;51.984;20.956;2023-08-17T02:08:38;22.80;77.59
65598;SHT31;52267;51.984;20.956;2023-08-17T02:11:05;22.79;77.51
65598;SHT31;52267;51.984;20.956;2023-08-17T02:13:32;22.81;77.53
65598;SHT31;52267;51.984;20.956;2023-08-17T02:15:59;22.81;77.44
65598;SHT31;52267;51.984;20.956;2023-08-17T02:18:26;22.78;77.47
65598;SHT31;52267;51.984;20.956;2023-08-17T02:20:57;22.79;77.50
65598;SHT31;52267;51.984;20.956;2023-08-17T02:23:24;22.80;77.65
65598;SHT31;52267;51.984;20.956;2023-08-17T02:25:51;22.80;77.69
65598;SHT31;52267;51.984;20.956;2023-08-17T02:28:18;22.79;77.78
65598;SHT31;52267;51.984;20.956;2023-08-17T02:30:46;22.77;78.13
65598;SHT31;52267;51.984;20.956;2023-08-17T02:33:14;22.74;78.12
65598;SHT31;52267;51.984;20.956;2023-08-17T02:35:41;22.74;78.02
65598;SHT31;52267;51.984;20.956;2023-08-17T02:38:08;22.73;78.02
65598;SHT31;52267;51.984;20.956;2023-08-17T02:40:35;22.74;77.98
65598;SHT31;52267;51.984;20.956;2023-08-17T02:43:02;22.75;78.18
65598;SHT31;52267;51.984;20.956;2023-08-17T02:45:29;22.73;78.19
65598;SHT31;52267;51.984;20.956;2023-08-17T02:47:56;22.71;78.29
65598;SHT31;52267;51.984;20.956;2023-08-17T02:50:23;22.70;78.28
65598;SHT31;52267;51.984;20.956;2023-08-17T02:52:50;22.68;78.29
65598;SHT31;52267;51.984;20.956;2023-08-17T02:55:17;22.68;78.40
65598;SHT31;52267;51.984;20.956;2023-08-17T02:57:45;22.67;78.44
65598;SHT31;52267;51.984;20.956;2023-08-17T03:00:12;22.67;78.45
65598;SHT31;52267;51.984;20.956;2023-08-17T03:02:40;22.67;78.51
65598;SHT31;52267;51.984;20.956;2023-08-17T03:05:07;22.67;78.41
65598;SHT31;52267;51.984;20.956;2023-08-17T03:07:34;22.68;78.49
65598;SHT31;52267;51.984;20.956;2023-08-17T03:10:01;22.68;78.59
65598;SHT31;52267;51.984;20.956;2023-08-17T03:12:28;22.66;78.72
65598;SHT31;52267;51.984;20.956;2023-08-17T03:14:55;22.64;78.80
65598;SHT31;52267;51.984;20.956;2023-08-17T03:17:22;22.61;78.85
65598;SHT31;52267;51.984;20.956;2023-08-17T03:19:49;22.60;78.87
65598;SHT31;52267;51.984;20.956;2023-08-17T03:22:16;22.59;78.79
65598;SHT31;52267;51.984;20.956;2023-08-17T03:24:43;22.58;79.00
65598;SHT31;52267;51.984;20.956;2023-08-17T03:27:11;22.54;78.94
65598;SHT31;52267;51.984;20.956;2023-08-17T03:29:38;22.54;78.97
65598;SHT31;52267;51.984;20.956;2023-08-17T03:32:05;22.53;79.08
65598;SHT31;52267;51.984;20.956;2023-08-17T03:34:32;22.51;79.10
65598;SHT31;52267;51.984;20.956;2023-08-17T03:36:59;22.50;78.92
65598;SHT31;52267;51.984;20.956;2023-08-17T03:39:26;22.52;78.90
65598;SHT31;52267;51.984;20.956;2023-08-17T03:41:53;22.52;78.94
65598;SHT31;52267;51.984;20.956;2023-08-17T03:44:20;22.52;78.97
65598;SHT31;52267;51.984;20.956;2023-08-17T03:46:47;22.52;78.83
65598;SHT31;52267;51.984;20.956;2023-08-17T03:49:14;22.54;78.72
65598;SHT31;52267;51.984;20.956;2023-08-17T03:51:41;22.53;78.47
65598;SHT31;52267;51.984;20.956;2023-08-17T03:54:08;22.55;78.29
65598;SHT31;52267;51.984;20.956;2023-08-17T03:56:35;22.56;78.13
65598;SHT31;52267;51.984;20.956;2023-08-17T03:59:02;22.56;78.02
65598;SHT31;52267;51.984;20.956;2023-08-17T04:01:30;22.56;77.83
65598;SHT31;52267;51.984;20.956;2023-08-17T04:03:57;22.57;77.60
65598;SHT31;52267;51.984;20.956;2023-08-17T04:06:24;22.58;77.55
65598;SHT31;52267;51.984;20.956;2023-08-17T04:08:51;22.60;77.43
65598;SHT31;52267;51.984;20.956;2023-08-17T04:11:18;22.62;77.36
65598;SHT31;52267;51.984;20.956;2023-08-17T04:13:45;22.64;77.05
65598;SHT31;52267;51.984;20.956;2023-08-17T04:16:12;22.65;76.69
65598;SHT31;52267;51.984;20.956;2023-08-17T04:18:39;22.68;76.64
65598;SHT31;52267;51.984;20.956;2023-08-17T04:21:06;22.69;76.51
65598;SHT31;52267;51.984;20.956;2023-08-17T04:23:33;22.71;76.46
65598;SHT31;52267;51.984;20.956;2023-08-17T04:26:00;22.73;76.24
65598;SHT31;52267;51.984;20.956;2023-08-17T04:28:27;22.76;75.98
65598;SHT31;52267;51.984;20.956;2023-08-17T04:30:54;22.79;75.84
65598;SHT31;52267;51.984;20.956;2023-08-17T04:33:21;22.80;75.59
65598;SHT31;52267;51.984;20.956;2023-08-17T04:35:48;22.83;75.59
65598;SHT31;52267;51.984;20.956;2023-08-17T04:38:15;22.87;75.37
65598;SHT31;52267;51.984;20.956;2023-08-17T04:40:42;22.91;75.24
65598;SHT31;52267;51.984;20.956;2023-08-17T04:43:10;22.93;75.14
65598;SHT31;52267;51.984;20.956;2023-08-17T04:45:37;22.97;75.04
65598;SHT31;52267;51.984;20.956;2023-08-17T04:48:05;23.01;74.86
65598;SHT31;52267;51.984;20.956;2023-08-17T04:50:33;23.05;74.64
65598;SHT31;52267;51.984;20.956;2023-08-17T04:53:00;23.09;74.53
65598;SHT31;52267;51.984;20.956;2023-08-17T04:55:27;23.13;74.51
65598;SHT31;52267;51.984;20.956;2023-08-17T04:57:54;23.19;74.39
65598;SHT31;52267;51.984;20.956;2023-08-17T05:00:21;23.24;74.25
65598;SHT31;52267;51.984;20.956;2023-08-17T05:02:54;23.28;74.12
65598;SHT31;52267;51.984;20.956;2023-08-17T05:05:22;23.33;73.98
65598;SHT31;52267;51.984;20.956;2023-08-17T05:07:49;23.36;73.72
65598;SHT31;52267;51.984;20.956;2023-08-17T05:10:17;23.40;73.78
65598;SHT31;52267;51.984;20.956;2023-08-17T05:12:44;23.44;73.71
65598;SHT31;52267;51.984;20.956;2023-08-17T05:15:11;23.46;73.75
65598;SHT31;52267;51.984;20.956;2023-08-17T05:17:39;23.50;73.60
65598;SHT31;52267;51.984;20.956;2023-08-17T05:20:06;23.54;73.43
65598;SHT31;52267;51.984;20.956;2023-08-17T05:22:39;23.59;73.22
65598;SHT31;52267;51.984;20.956;2023-08-17T05:25:06;23.63;73.15
65598;SHT31;52267;51.984;20.956;2023-08-17T05:27:34;23.68;73.19
65598;SHT31;52267;51.984;20.956;2023-08-17T05:30:01;23.72;73.01
65598;SHT31;52267;51.984;20.956;2023-08-17T05:32:28;23.76;72.90
65598;SHT31;52267;51.984;20.956;2023-08-17T05:34:56;23.80;72.95
65598;SHT31;52267;51.984;20.956;2023-08-17T05:37:24;23.85;72.80
65598;SHT31;52267;51.984;20.956;2023-08-17T05:39:51;23.91;72.86
65598;SHT31;52267;51.984;20.956;2023-08-17T05:42:18;23.99;72.60
65598;SHT31;52267;51.984;20.956;2023-08-17T05:44:45;24.05;72.54
65598;SHT31;52267;51.984;20.956;2023-08-17T05:47:12;24.14;72.05
65598;SHT31;52267;51.984;20.956;2023-08-17T05:49:41;24.23;71.98
65598;SHT31;52267;51.984;20.956;2023-08-17T05:52:08;24.32;72.07
65598;SHT31;52267;51.984;20.956;2023-08-17T05:54:35;24.44;71.83
65598;SHT31;52267;51.984;20.956;2023-08-17T05:57:03;24.54;71.87
65598;SHT31;52267;51.984;20.956;2023-08-17T05:59:30;24.62;71.03
65598;SHT31;52267;51.984;20.956;2023-08-17T06:01:57;24.70;70.61
65598;SHT31;52267;51.984;20.956;2023-08-17T06:04:24;24.77;70.41
65598;SHT31;52267;51.984;20.956;2023-08-17T06:06:52;24.83;70.20
65598;SHT31;52267;51.984;20.956;2023-08-17T06:09:19;24.90;69.91
65598;SHT31;52267;51.984;20.956;2023-08-17T06:11:46;24.95;70.07
65598;SHT31;52267;51.984;20.956;2023-08-17T06:14:13;25.00;69.69
65598;SHT31;52267;51.984;20.956;2023-08-17T06:16:40;25.03;69.89
65598;SHT31;52267;51.984;20.956;2023-08-17T06:19:07;25.08;69.84
65598;SHT31;52267;51.984;20.956;2023-08-17T06:21:34;25.11;69.51
65598;SHT31;52267;51.984;20.956;2023-08-17T06:24:02;25.17;69.47
65598;SHT31;52267;51.984;20.956;2023-08-17T06:26:29;25.23;69.51
65598;SHT31;52267;51.984;20.956;2023-08-17T06:28:56;25.27;69.38
65598;SHT31;52267;51.984;20.956;2023-08-17T06:31:23;25.34;69.43
65598;SHT31;52267;51.984;20.956;2023-08-17T06:33:54;25.39;69.36
65598;SHT31;52267;51.984;20.956;2023-08-17T06:36:21;25.40;68.90
65598;SHT31;52267;51.984;20.956;2023-08-17T06:38:48;25.43;69.01
65598;SHT31;52267;51.984;20.956;2023-08-17T06:41:16;25.49;68.96
65598;SHT31;52267;51.984;20.956;2023-08-17T06:43:43;25.53;69.15
65598;SHT31;52267;51.984;20.956;2023-08-17T06:46:10;25.57;68.95
65598;SHT31;52267;51.984;20.956;2023-08-17T06:48:37;25.64;68.57
65598;SHT31;52267;51.984;20.956;2023-08-17T06:51:04;25.69;68.26
65598;SHT31;52267;51.984;20.956;2023-08-17T06:53:32;25.75;68.20
65598;SHT31;52267;51.984;20.956;2023-08-17T06:55:59;25.82;68.04
65598;SHT31;52267;51.984;20.956;2023-08-17T06:58:26;25.88;67.74
65598;SHT31;52267;51.984;20.956;2023-08-17T07:00:53;25.96;67.61
65598;SHT31;52267;51.984;20.956;2023-08-17T07:03:20;26.05;67.29
65598;SHT31;52267;51.984;20.956;2023-08-17T07:05:47;26.13;67.27
65598;SHT31;52267;51.984;20.956;2023-08-17T07:08:14;26.17;67.13
65598;SHT31;52267;51.984;20.956;2023-08-17T07:10:42;26.20;67.13
65598;SHT31;52267;51.984;20.956;2023-08-17T07:13:09;26.23;67.04
65598;SHT31;52267;51.984;20.956;2023-08-17T07:15:36;26.31;67.02
65598;SHT31;52267;51.984;20.956;2023-08-17T07:18:03;26.36;66.91
65598;SHT31;52267;51.984;20.956;2023-08-17T07:20:30;26.38;66.49
65598;SHT31;52267;51.984;20.956;2023-08-17T07:22:58;26.43;66.73
65598;SHT31;52267;51.984;20.956;2023-08-17T07:25:25;26.49;65.92
65598;SHT31;52267;51.984;20.956;2023-08-17T07:27:52;26.57;66.33
65598;SHT31;52267;51.984;20.956;2023-08-17T07:30:19;26.73;65.99
65598;SHT31;52267;51.984;20.956;2023-08-17T07:32:46;26.81;65.28
65598;SHT31;52267;51.984;20.956;2023-08-17T07:35:13;26.92;65.52
65598;SHT31;52267;51.984;20.956;2023-08-17T07:37:40;27.06;65.38
65598;SHT31;52267;51.984;20.956;2023-08-17T07:40:08;27.15;64.37
65598;SHT31;52267;51.984;20.956;2023-08-17T07:42:36;27.21;64.30
65598;SHT31;52267;51.984;20.956;2023-08-17T07:45:03;27.32;64.15
65598;SHT31;52267;51.984;20.956;2023-08-17T07:47:35;27.51;64.25
65598;SHT31;52267;51.984;20.956;2023-08-17T07:50:05;27.70;63.38
65598;SHT31;52267;51.984;20.956;2023-08-17T07:52:33;27.83;62.68
65598;SHT31;52267;51.984;20.956;2023-08-17T07:55:00;28.10;62.99
65598;SHT31;52267;51.984;20.956;2023-08-17T07:57:27;28.38;62.60
65598;SHT31;52267;51.984;20.956;2023-08-17T07:59:54;28.57;62.05
65598;SHT31;52267;51.984;20.956;2023-08-17T08:02:21;28.81;61.40
65598;SHT31;52267;51.984;20.956;2023-08-17T08:04:48;29.16;60.87
65598;SHT31;52267;51.984;20.956;2023-08-17T08:07:16;29.44;60.03
65598;SHT31;52267;51.984;20.956;2023-08-17T08:09:43;29.57;59.39
65598;SHT31;52267;51.984;20.956;2023-08-17T08:12:10;29.59;58.85
65598;SHT31;52267;51.984;20.956;2023-08-17T08:14:37;29.70;59.52
65598;SHT31;52267;51.984;20.956;2023-08-17T08:17:04;29.83;58.86
65598;SHT31;52267;51.984;20.956;2023-08-17T08:19:31;29.80;58.30
65598;SHT31;52267;51.984;20.956;2023-08-17T08:21:59;29.77;58.62
65598;SHT31;52267;51.984;20.956;2023-08-17T08:24:26;29.89;57.81
65598;SHT31;52267;51.984;20.956;2023-08-17T08:26:57;30.00;55.60
65598;SHT31;52267;51.984;20.956;2023-08-17T08:29:24;30.21;55.93
65598;SHT31;52267;51.984;20.956;2023-08-17T08:31:51;30.53;56.18
65598;SHT31;52267;51.984;20.956;2023-08-17T08:34:19;30.83;55.14
65598;SHT31;52267;51.984;20.956;2023-08-17T08:36:47;30.97;54.07
65598;SHT31;52267;51.984;20.956;2023-08-17T08:39:15;31.15;54.27
65598;SHT31;52267;51.984;20.956;2023-08-17T08:41:42;31.34;53.83
65598;SHT31;52267;51.984;20.956;2023-08-17T08:44:09;31.54;54.34
65598;SHT31;52267;51.984;20.956;2023-08-17T08:46:36;31.75;53.19
65598;SHT31;52267;51.984;20.956;2023-08-17T08:49:10;31.90;53.16
65598;SHT31;52267;51.984;20.956;2023-08-17T08:51:41;32.15;52.57
65598;SHT31;52267;51.984;20.956;2023-08-17T08:54:12;32.40;52.50
65598;SHT31;52267;51.984;20.956;2023-08-17T08:56:42;32.66;52.43
65598;SHT31;52267;51.984;20.956;2023-08-17T08:59:11;32.66;49.39
65598;SHT31;52267;51.984;20.956;2023-08-17T09:01:39;32.86;50.20
65598;SHT31;52267;51.984;20.956;2023-08-17T09:04:07;32.99;50.01
65598;SHT31;52267;51.984;20.956;2023-08-17T09:06:34;33.11;49.99
65598;SHT31;52267;51.984;20.956;2023-08-17T09:09:03;33.23;49.22
65598;SHT31;52267;51.984;20.956;2023-08-17T09:11:31;33.44;48.88
65598;SHT31;52267;51.984;20.956;2023-08-17T09:13:58;33.60;48.48
65598;SHT31;52267;51.984;20.956;2023-08-17T09:16:26;33.65;48.26
65598;SHT31;52267;51.984;20.956;2023-08-17T09:18:54;33.82;47.52
65598;SHT31;52267;51.984;20.956;2023-08-17T09:21:21;33.87;46.42
65598;SHT31;52267;51.984;20.956;2023-08-17T09:23:50;33.95;46.46
65598;SHT31;52267;51.984;20.956;2023-08-17T09:26:21;34.07;46.07
65598;SHT31;52267;51.984;20.956;2023-08-17T09:28:50;33.91;45.80
65598;SHT31;52267;51.984;20.956;2023-08-17T09:31:21;33.69;46.10
65598;SHT31;52267;51.984;20.956;2023-08-17T09:33:50;33.48;45.53
65598;SHT31;52267;51.984;20.956;2023-08-17T09:36:21;33.24;45.22
65598;SHT31;52267;51.984;20.956;2023-08-17T09:38:50;33.46;45.93
65598;SHT31;52267;51.984;20.956;2023-08-17T09:41:18;33.59;44.98
65598;SHT31;52267;51.984;20.956;2023-08-17T09:43:46;33.69;44.09
65598;SHT31;52267;51.984;20.956;2023-08-17T09:46:14;33.86;44.18
65598;SHT31;52267;51.984;20.956;2023-08-17T09:48:44;34.17;45.36
65598;SHT31;52267;51.984;20.956;2023-08-17T09:51:15;34.45;44.04
65598;SHT31;52267;51.984;20.956;2023-08-17T09:53:42;34.61;43.38
65598;SHT31;52267;51.984;20.956;2023-08-17T09:56:10;34.86;43.07
65598;SHT31;52267;51.984;20.956;2023-08-17T09:58:38;34.93;43.04
65598;SHT31;52267;51.984;20.956;2023-08-17T10:01:05;35.06;42.63
65598;SHT31;52267;51.984;20.956;2023-08-17T10:03:35;35.19;42.40
65598;SHT31;52267;51.984;20.956;2023-08-17T10:06:06;35.29;41.38
65598;SHT31;52267;51.984;20.956;2023-08-17T10:08:39;35.12;41.04
65598;SHT31;52267;51.984;20.956;2023-08-17T10:11:10;34.75;40.80
65598;SHT31;52267;51.984;20.956;2023-08-17T10:13:42;34.51;39.47
65598;SHT31;52267;51.984;20.956;2023-08-17T10:16:26;34.50;40.89
65598;SHT31;52267;51.984;20.956;2023-08-17T10:19:05;34.66;40.83
65598;SHT31;52267;51.984;20.956;2023-08-17T10:22:11;34.87;39.22
65598;SHT31;52267;51.984;20.956;2023-08-17T10:24:50;35.02;39.73
65598;SHT31;52267;51.984;20.956;2023-08-17T10:27:17;35.34;39.47
65598;SHT31;52267;51.984;20.956;2023-08-17T10:29:47;35.50;38.25
65598;SHT31;52267;51.984;20.956;2023-08-17T10:32:17;35.63;36.52
65598;SHT31;52267;51.984;20.956;2023-08-17T10:34:45;35.51;36.96
65598;SHT31;52267;51.984;20.956;2023-08-17T10:37:12;35.62;36.74
65598;SHT31;52267;51.984;20.956;2023-08-17T10:39:44;35.66;35.02
65598;SHT31;52267;51.984;20.956;2023-08-17T10:42:13;35.69;34.17
65598;SHT31;52267;51.984;20.956;2023-08-17T10:44:45;35.93;35.88
65598;SHT31;52267;51.984;20.956;2023-08-17T10:47:20;36.17;36.49
65598;SHT31;52267;51.984;20.956;2023-08-17T10:49:58;36.25;35.40
65598;SHT31;52267;51.984;20.956;2023-08-17T10:52:28;36.25;35.25
65598;SHT31;52267;51.984;20.956;2023-08-17T10:54:58;36.06;34.40
65598;SHT31;52267;51.984;20.956;2023-08-17T10:57:28;36.18;35.30
65598;SHT31;52267;51.984;20.956;2023-08-17T11:00:16;36.34;35.53
65598;SHT31;52267;51.984;20.956;2023-08-17T11:02:57;36.26;33.20
65598;SHT31;52267;51.984;20.956;2023-08-17T11:05:35;36.27;33.29
65598;SHT31;52267;51.984;20.956;2023-08-17T11:10:40;36.54;33.02
65598;SHT31;52267;51.984;20.956;2023-08-17T11:13:09;36.68;33.81
65598;SHT31;52267;51.984;20.956;2023-08-17T11:15:37;36.92;33.09
65598;SHT31;52267;51.984;20.956;2023-08-17T11:18:09;36.94;33.00
65598;SHT31;52267;51.984;20.956;2023-08-17T11:20:37;37.09;33.45
65598;SHT31;52267;51.984;20.956;2023-08-17T11:23:07;37.09;32.90
65598;SHT31;52267;51.984;20.956;2023-08-17T11:25:35;37.15;32.25
65598;SHT31;52267;51.984;20.956;2023-08-17T11:28:05;36.97;31.70
65598;SHT31;52267;51.984;20.956;2023-08-17T11:30:35;36.93;31.57
65598;SHT31;52267;51.984;20.956;2023-08-17T11:33:05;36.79;32.16
65598;SHT31;52267;51.984;20.956;2023-08-17T11:35:33;36.77;32.29
65598;SHT31;52267;51.984;20.956;2023-08-17T11:38:02;36.82;32.71
65598;SHT31;52267;51.984;20.956;2023-08-17T11:40:30;36.87;32.36
65598;SHT31;52267;51.984;20.956;2023-08-17T11:42:57;36.72;31.08
65598;SHT31;52267;51.984;20.956;2023-08-17T11:45:24;36.58;32.17
65598;SHT31;52267;51.984;20.956;2023-08-17T11:47:52;36.70;32.32
65598;SHT31;52267;51.984;20.956;2023-08-17T11:50:19;36.66;31.88
65598;SHT31;52267;51.984;20.956;2023-08-17T11:52:46;36.64;32.49
65598;SHT31;52267;51.984;20.956;2023-08-17T11:55:15;36.59;31.79
65598;SHT31;52267;51.984;20.956;2023-08-17T11:57:44;36.42;32.49
65598;SHT31;52267;51.984;20.956;2023-08-17T12:00:16;36.39;32.70
65598;SHT31;52267;51.984;20.956;2023-08-17T12:02:47;36.45;32.75
65598;SHT31;52267;51.984;20.956;2023-08-17T12:05:19;36.47;33.00
65598;SHT31;52267;51.984;20.956;2023-08-17T12:07:50;36.44;32.83
65598;SHT31;52267;51.984;20.956;2023-08-17T12:10:20;36.31;33.26
65598;SHT31;52267;51.984;20.956;2023-08-17T12:12:49;36.34;33.43
65598;SHT31;52267;51.984;20.956;2023-08-17T12:15:16;36.33;33.33
65598;SHT31;52267;51.984;20.956;2023-08-17T12:17:47;36.07;32.76
65598;SHT31;52267;51.984;20.956;2023-08-17T12:20:16;35.89;33.50
65598;SHT31;52267;51.984;20.956;2023-08-17T12:22:48;35.81;33.54
65598;SHT31;52267;51.984;20.956;2023-08-17T12:25:15;35.88;34.10
65598;SHT31;52267;51.984;20.956;2023-08-17T12:27:42;35.97;34.46
65598;SHT31;52267;51.984;20.956;2023-08-17T12:30:31;36.10;34.30
65598;SHT31;52267;51.984;20.956;2023-08-17T12:32:59;36.12;34.12
65598;SHT31;52267;51.984;20.956;2023-08-17T12:35:26;36.13;34.12
65598;SHT31;52267;51.984;20.956;2023-08-17T12:37:53;36.05;34.07
65598;SHT31;52267;51.984;20.956;2023-08-17T12:40:21;36.23;34.15
65598;SHT31;52267;51.984;20.956;2023-08-17T12:42:49;36.42;34.06
65598;SHT31;52267;51.984;20.956;2023-08-17T12:45:16;36.55;34.40
65598;SHT31;52267;51.984;20.956;2023-08-17T12:47:44;36.77;34.35
65598;SHT31;52267;51.984;20.956;2023-08-17T12:50:11;36.85;33.72
65598;SHT31;52267;51.984;20.956;2023-08-17T12:52:38;36.78;33.99
65598;SHT31;52267;51.984;20.956;2023-08-17T12:55:05;36.77;33.93
65598;SHT31;52267;51.984;20.956;2023-08-17T12:57:33;36.66;33.96
65598;SHT31;52267;51.984;20.956;2023-08-17T13:00:00;36.63;33.85
65598;SHT31;52267;51.984;20.956;2023-08-17T13:02:27;36.41;34.06
65598;SHT31;52267;51.984;20.956;2023-08-17T13:04:54;36.01;34.53
65598;SHT31;52267;51.984;20.956;2023-08-17T13:07:21;35.79;34.85
65598;SHT31;52267;51.984;20.956;2023-08-17T13:09:49;35.74;34.60
65598;SHT31;52267;51.984;20.956;2023-08-17T13:12:16;35.81;34.60
65598;SHT31;52267;51.984;20.956;2023-08-17T13:14:43;35.90;34.34
65598;SHT31;52267;51.984;20.956;2023-08-17T13:17:10;35.87;34.30
65598;SHT31;52267;51.984;20.956;2023-08-17T13:19:37;35.83;34.38
65598;SHT31;52267;51.984;20.956;2023-08-17T13:22:04;35.70;34.51
65598;SHT31;52267;51.984;20.956;2023-08-17T13:24:32;35.54;34.97
65598;SHT31;52267;51.984;20.956;2023-08-17T13:26:59;35.56;35.16
65598;SHT31;52267;51.984;20.956;2023-08-17T13:29:26;35.54;34.84
65598;SHT31;52267;51.984;20.956;2023-08-17T13:31:53;35.54;34.40
65598;SHT31;52267;51.984;20.956;2023-08-17T13:34:20;35.46;34.72
65598;SHT31;52267;51.984;20.956;2023-08-17T13:36:47;35.39;34.75
65598;SHT31;52267;51.984;20.956;2023-08-17T13:39:14;35.34;34.96
65598;SHT31;52267;51.984;20.956;2023-08-17T13:41:42;35.38;35.18
65598;SHT31;52267;51.984;20.956;2023-08-17T13:44:09;35.44;35.14
65598;SHT31;52267;51.984;20.956;2023-08-17T13:46:36;35.41;34.33
65598;SHT31;52267;51.984;20.956;2023-08-17T13:49:04;35.41;35.05
65598;SHT31;52267;51.984;20.956;2023-08-17T13:51:31;35.58;35.13
65598;SHT31;52267;51.984;20.956;2023-08-17T13:53:58;35.60;34.70
65598;SHT31;52267;51.984;20.956;2023-08-17T13:56:25;35.68;35.20
65598;SHT31;52267;51.984;20.956;2023-08-17T13:58:53;35.75;34.76
65598;SHT31;52267;51.984;20.956;2023-08-17T14:01:20;35.66;35.30
65598;SHT31;52267;51.984;20.956;2023-08-17T14:03:47;35.68;35.68
65598;SHT31;52267;51.984;20.956;2023-08-17T14:06:20;35.77;35.54
65598;SHT31;52267;51.984;20.956;2023-08-17T14:08:47;35.80;35.18
65598;SHT31;52267;51.984;20.956;2023-08-17T14:11:14;35.87;35.08
65598;SHT31;52267;51.984;20.956;2023-08-17T14:13:42;35.84;35.16
65598;SHT31;52267;51.984;20.956;2023-08-17T14:16:09;35.89;35.42
65598;SHT31;52267;51.984;20.956;2023-08-17T14:18:36;35.87;35.25
65598;SHT31;52267;51.984;20.956;2023-08-17T14:21:03;35.87;35.26
65598;SHT31;52267;51.984;20.956;2023-08-17T14:23:30;35.79;35.29
65598;SHT31;52267;51.984;20.956;2023-08-17T14:25:57;35.71;35.57
65598;SHT31;52267;51.984;20.956;2023-08-17T14:28:25;35.80;35.71
65598;SHT31;52267;51.984;20.956;2023-08-17T14:30:53;35.83;35.55
65598;SHT31;52267;51.984;20.956;2023-08-17T14:33:20;35.85;35.46
65598;SHT31;52267;51.984;20.956;2023-08-17T14:35:47;35.88;35.55
65598;SHT31;52267;51.984;20.956;2023-08-17T14:38:15;35.91;35.53
65598;SHT31;52267;51.984;20.956;2023-08-17T14:40:44;35.82;34.94
65598;SHT31;52267;51.984;20.956;2023-08-17T14:43:12;35.65;35.20
65598;SHT31;52267;51.984;20.956;2023-08-17T14:45:43;35.62;35.39
65598;SHT31;52267;51.984;20.956;2023-08-17T14:48:10;35.69;35.55
65598;SHT31;52267;51.984;20.956;2023-08-17T14:50:37;35.81;35.42
65598;SHT31;52267;51.984;20.956;2023-08-17T14:53:05;35.68;34.81
65598;SHT31;52267;51.984;20.956;2023-08-17T14:55:33;35.64;35.24
65598;SHT31;52267;51.984;20.956;2023-08-17T14:58:01;35.61;35.06
65598;SHT31;52267;51.984;20.956;2023-08-17T15:00:28;35.49;35.28
65598;SHT31;52267;51.984;20.956;2023-08-17T15:02:56;35.58;35.94
65598;SHT31;52267;51.984;20.956;2023-08-17T15:05:24;35.60;35.28
65598;SHT31;52267;51.984;20.956;2023-08-17T15:07:53;35.44;35.79
65598;SHT31;52267;51.984;20.956;2023-08-17T15:10:20;35.49;35.99
65598;SHT31;52267;51.984;20.956;2023-08-17T15:12:47;35.57;35.79
65598;SHT31;52267;51.984;20.956;2023-08-17T15:15:14;35.60;35.64
65598;SHT31;52267;51.984;20.956;2023-08-17T15:17:41;35.49;35.53
65598;SHT31;52267;51.984;20.956;2023-08-17T15:20:08;35.39;35.49
65598;SHT31;52267;51.984;20.956;2023-08-17T15:22:36;35.38;35.17
65598;SHT31;52267;51.984;20.956;2023-08-17T15:25:03;35.31;34.91
65598;SHT31;52267;51.984;20.956;2023-08-17T15:27:31;35.22;35.06